Time;durP1;ratioP1;P1;durP2;ratioP2;P2;SDS_P1;SDS_P2;PMS_P1;PMS_P2;Temp;Humidity;BMP_temperature;BMP_pressure;BME280_temperature;BME280_humidity;BME280_pressure;Samples;Min_cycle;Max_cycle;Signal;HPM_P1;HPM_P2
2023/08/15 00:02:27;;;;;;;7.67;3.83;;;;;;;20.66;100.00;100718.56;6097218;28;20028;-66
2023/08/15 00:05:22;;;;;;;8.47;3.97;;;;;;;20.70;100.00;100729.78;6096829;28;20116;-66
2023/08/15 00:08:17;;;;;;;8.40;3.80;;;;;;;20.66;100.00;100726.66;6097032;28;20024;-65
2023/08/15 00:11:13;;;;;;;12.30;4.10;;;;;;;20.62;100.00;100719.22;6097407;28;20029;-66
2023/08/15 00:14:09;;;;;;;6.28;3.55;;;;;;;20.62;100.00;100730.00;6096361;28;20032;-66
2023/08/15 00:17:05;;;;;;;8.25;3.72;;;;;;;20.54;100.00;100709.50;6097200;28;20028;-66
2023/08/15 00:20:01;;;;;;;9.15;3.58;;;;;;;20.52;100.00;100710.75;6099171;28;20037;-66
2023/08/15 00:22:56;;;;;;;7.80;3.77;;;;;;;20.48;100.00;100707.66;6102559;28;20056;-65
2023/08/15 00:25:51;;;;;;;10.00;3.63;;;;;;;20.53;100.00;100715.09;6096378;28;20029;-66
2023/08/15 00:28:47;;;;;;;6.97;3.20;;;;;;;20.41;100.00;100700.63;6096781;28;20048;-65
2023/08/15 00:31:42;;;;;;;9.53;3.57;;;;;;;20.52;100.00;100730.41;6101211;28;20506;-66
2023/08/15 00:34:37;;;;;;;7.20;3.30;;;;;;;20.39;100.00;100713.44;6100862;28;20020;-65
2023/08/15 00:37:33;;;;;;;8.03;3.83;;;;;;;20.42;100.00;100723.81;6102642;28;20049;-66
2023/08/15 00:40:28;;;;;;;6.80;3.93;;;;;;;20.31;100.00;100716.38;6101572;28;20032;-66
2023/08/15 00:43:23;;;;;;;13.60;4.00;;;;;;;20.23;100.00;100713.84;6100572;28;20246;-65
2023/08/15 00:46:19;;;;;;;11.90;3.87;;;;;;;20.16;100.00;100709.28;6101523;28;20036;-66
2023/08/15 00:49:14;;;;;;;9.30;4.63;;;;;;;20.19;100.00;100730.44;6101238;28;20051;-66
2023/08/15 00:52:11;;;;;;;9.98;4.05;;;;;;;20.23;100.00;100709.31;6101293;28;20027;-66
2023/08/15 00:55:07;;;;;;;8.80;3.83;;;;;;;20.22;100.00;100717.59;6123761;28;20032;-66
2023/08/15 00:58:02;;;;;;;13.13;4.60;;;;;;;20.14;100.00;100721.31;6100934;28;20481;-66
2023/08/15 01:00:58;;;;;;;8.23;3.85;;;;;;;20.22;100.00;100721.09;6101152;28;20017;-66
2023/08/15 01:03:54;;;;;;;7.60;4.07;;;;;;;20.32;100.00;100712.66;6112420;28;20029;-66
2023/08/15 01:06:50;;;;;;;10.15;3.85;;;;;;;20.39;100.00;100729.63;6109158;28;20128;-66
2023/08/15 01:09:45;;;;;;;7.78;3.63;;;;;;;20.30;100.00;100722.81;6101411;28;20497;-67
2023/08/15 01:13:02;;;;;;;8.93;3.60;;;;;;;20.24;100.00;100712.81;6100456;28;20024;-66
2023/08/15 01:15:58;;;;;;;7.35;3.50;;;;;;;20.23;100.00;100713.84;6098854;28;20036;-66
2023/08/15 01:19:30;;;;;;;7.18;3.50;;;;;;;20.21;100.00;100724.84;6099218;28;20037;-66
2023/08/15 01:22:28;;;;;;;8.68;3.58;;;;;;;20.14;100.00;100711.38;6095685;28;20032;-66
2023/08/15 01:25:25;;;;;;;8.07;4.18;;;;;;;20.10;100.00;100712.00;6099924;28;20032;-66
2023/08/15 01:28:21;;;;;;;7.30;3.75;;;;;;;19.97;100.00;100704.78;6100513;28;20037;-66
2023/08/15 01:31:36;;;;;;;8.63;4.05;;;;;;;19.82;100.00;100708.69;6100100;28;20074;-66
2023/08/15 01:34:34;;;;;;;8.48;3.78;;;;;;;19.90;100.00;100698.53;6098234;28;20354;-66
2023/08/15 01:37:30;;;;;;;9.40;4.88;;;;;;;19.84;100.00;100688.59;6112502;28;20043;-67
2023/08/15 01:40:25;;;;;;;8.05;3.53;;;;;;;19.96;100.00;100692.34;6115577;28;20028;-66
2023/08/15 01:43:22;;;;;;;8.35;3.72;;;;;;;19.90;100.00;100679.69;6097176;28;20025;-66
2023/08/15 01:46:18;;;;;;;8.20;3.50;;;;;;;20.11;100.00;100694.81;6098907;28;20031;-66
2023/08/15 01:49:13;;;;;;;9.13;4.03;;;;;;;19.86;100.00;100683.03;6099984;28;20036;-66
2023/08/15 01:52:09;;;;;;;7.50;3.88;;;;;;;19.91;100.00;100694.81;6098990;28;20048;-66
2023/08/15 01:55:04;;;;;;;9.50;4.20;;;;;;;19.69;100.00;100676.38;6099166;28;20449;-66
2023/08/15 01:58:00;;;;;;;9.30;3.85;;;;;;;19.66;100.00;100685.69;6099718;28;20487;-66
2023/08/15 02:00:55;;;;;;;8.07;3.80;;;;;;;19.53;100.00;100674.94;6099766;28;20060;-65
2023/08/15 02:03:50;;;;;;;10.03;3.80;;;;;;;19.62;100.00;100695.22;6085769;28;20107;-65
2023/08/15 02:06:46;;;;;;;7.70;3.70;;;;;;;19.50;100.00;100669.94;6099488;28;20024;-66
2023/08/15 02:09:41;;;;;;;6.60;3.70;;;;;;;19.58;100.00;100684.03;6099831;28;20063;-66
2023/08/15 02:12:36;;;;;;;10.20;4.20;;;;;;;19.60;100.00;100678.44;6099322;28;20514;-66
2023/08/15 02:15:32;;;;;;;9.40;3.57;;;;;;;19.54;100.00;100677.41;6098917;28;20075;-66
2023/08/15 02:18:31;;;;;;;7.60;3.95;;;;;;;19.64;100.00;100690.47;6099241;28;20271;-66
2023/08/15 02:21:26;;;;;;;5.97;3.15;;;;;;;19.57;100.00;100676.16;6099088;28;20074;-65
2023/08/15 02:24:21;;;;;;;5.83;3.37;;;;;;;19.59;100.00;100666.84;6099728;28;20025;-66
2023/08/15 02:27:17;;;;;;;7.47;3.50;;;;;;;19.69;100.00;100679.91;6098928;28;20266;-65
2023/08/15 02:30:12;;;;;;;5.77;3.40;;;;;;;19.74;100.00;100685.50;6099324;28;20269;-66
2023/08/15 02:33:08;;;;;;;9.17;3.63;;;;;;;19.69;100.00;100679.91;6099006;28;20108;-65
2023/08/15 02:36:07;;;;;;;6.25;3.40;;;;;;;19.78;100.00;100680.53;6098643;28;20303;-66
2023/08/15 02:39:03;;;;;;;8.02;2.70;;;;;;;19.85;100.00;100684.03;6098916;28;20039;-65
2023/08/15 02:41:58;;;;;;;7.00;3.03;;;;;;;19.80;100.00;100668.53;6096164;28;20380;-65
2023/08/15 02:44:54;;;;;;;9.80;3.47;;;;;;;19.83;100.00;100668.13;6098400;28;20055;-66
2023/08/15 02:47:49;;;;;;;7.03;2.97;;;;;;;19.94;100.00;100678.25;6098669;28;20081;-65
2023/08/15 02:50:45;;;;;;;7.32;3.55;;;;;;;19.86;100.00;100670.41;6098419;28;20033;-66
2023/08/15 02:53:40;;;;;;;6.70;3.30;;;;;;;19.92;100.00;100672.22;6097650;28;20487;-66
2023/08/15 02:56:35;;;;;;;6.40;2.73;;;;;;;19.83;100.00;100662.75;6099258;28;20029;-65
2023/08/15 02:59:31;;;;;;;4.93;2.70;;;;;;;19.84;100.00;100666.25;6102735;28;20037;-65
2023/08/15 03:02:27;;;;;;;7.53;3.03;;;;;;;19.80;100.00;100660.44;6098156;28;20373;-65
2023/08/15 03:05:22;;;;;;;5.38;2.88;;;;;;;19.77;100.00;100657.34;6097418;28;20124;-65
2023/08/15 03:08:17;;;;;;;5.43;2.97;;;;;;;19.92;100.00;100677.63;6098220;28;20032;-65
2023/08/15 03:11:13;;;;;;;6.07;2.85;;;;;;;19.85;100.00;100690.25;6097963;28;20025;-66
2023/08/15 03:14:08;;;;;;;5.23;2.63;;;;;;;19.67;100.00;100681.97;6098762;28;20086;-65
2023/08/15 03:17:03;;;;;;;4.23;2.80;;;;;;;19.78;100.00;100702.06;6097881;28;20475;-66
2023/08/15 03:19:59;;;;;;;4.93;3.30;;;;;;;19.66;100.00;100690.25;6098062;28;20071;-66
2023/08/15 03:22:54;;;;;;;7.23;3.00;;;;;;;19.64;100.00;100693.16;6097987;28;20266;-65
2023/08/15 03:26:00;;;;;;;5.07;2.83;;;;;;;19.63;100.00;100696.88;6097045;28;20464;-66
2023/08/15 03:28:56;;;;;;;4.28;2.53;;;;;;;19.63;100.00;100707.63;6098720;28;20542;-66
2023/08/15 03:31:55;;;;;;;6.88;3.10;;;;;;;19.57;100.00;100706.59;6109976;28;20516;-66
2023/08/15 03:34:51;;;;;;;6.47;2.72;;;;;;;19.46;100.00;100707.19;6097091;28;20025;-66
2023/08/15 03:37:46;;;;;;;6.18;2.95;;;;;;;19.53;100.00;100701.81;6097609;28;20041;-66
2023/08/15 03:40:45;;;;;;;5.73;2.80;;;;;;;19.62;100.00;100711.38;6092457;28;20059;-66
2023/08/15 03:43:40;;;;;;;14.65;3.03;;;;;;;19.52;100.00;100717.13;6097002;28;20514;-66
2023/08/15 03:46:36;;;;;;;7.03;3.17;;;;;;;19.46;100.00;100701.81;6109707;28;20024;-65
2023/08/15 03:49:31;;;;;;;4.83;2.83;;;;;;;19.50;100.00;100700.38;6097636;28;20053;-66
2023/08/15 03:52:27;;;;;;;7.00;3.35;;;;;;;19.40;100.00;100699.13;6097299;28;20028;-65
2023/08/15 03:55:22;;;;;;;7.03;2.97;;;;;;;19.41;100.00;100701.59;6096316;28;20060;-66
2023/08/15 03:58:18;;;;;;;8.00;4.10;;;;;;;19.47;100.00;100705.31;6097387;28;20028;-65
2023/08/15 04:01:14;;;;;;;5.82;3.17;;;;;;;19.38;100.00;100695.78;6098299;28;20029;-65
2023/08/15 04:04:10;;;;;;;8.30;3.60;;;;;;;19.40;100.00;100712.56;6097027;28;20353;-65
2023/08/15 04:07:05;;;;;;;7.85;3.35;;;;;;;19.39;100.00;100694.75;6102151;28;20079;-66
2023/08/15 04:10:00;;;;;;;6.73;3.30;;;;;;;19.43;100.00;100690.66;6102082;28;20032;-66
2023/08/15 04:12:56;;;;;;;6.67;3.43;;;;;;;19.47;100.00;100703.47;6102171;28;20036;-66
2023/08/15 04:15:51;;;;;;;6.90;3.47;;;;;;;19.40;100.00;100680.28;6101427;28;20035;-66
2023/08/15 04:18:46;;;;;;;12.68;5.43;;;;;;;19.29;100.00;100679.00;6104963;28;20024;-65
2023/08/15 04:21:42;;;;;;;20.63;9.93;;;;;;;19.27;100.00;100680.22;6101786;28;20109;-65
2023/08/15 04:24:37;;;;;;;17.87;9.07;;;;;;;19.27;100.00;100674.84;6101410;28;20037;-66
2023/08/15 04:27:32;;;;;;;16.27;8.20;;;;;;;19.38;100.00;100687.72;6101945;28;20062;-65
2023/08/15 04:30:29;;;;;;;13.23;6.38;;;;;;;19.40;100.00;100682.97;6101623;28;20104;-65
2023/08/15 04:33:25;;;;;;;10.20;4.63;;;;;;;19.35;100.00;100671.97;6101283;28;20043;-66
2023/08/15 04:36:20;;;;;;;12.27;4.03;;;;;;;19.32;100.00;100683.94;6115951;28;20033;-65
2023/08/15 04:39:17;;;;;;;10.75;4.00;;;;;;;19.37;100.00;100692.25;6101726;28;20017;-65
2023/08/15 04:42:12;;;;;;;12.13;3.92;;;;;;;19.36;100.00;100679.00;6089443;28;20094;-65
2023/08/15 04:45:08;;;;;;;6.63;3.50;;;;;;;19.45;100.00;100681.34;6100681;28;20025;-65
2023/08/15 04:48:04;;;;;;;8.02;3.75;;;;;;;19.57;100.00;100692.31;6101535;28;20464;-65
2023/08/15 04:50:59;;;;;;;8.95;4.10;;;;;;;19.80;100.00;100718.84;6102679;28;20060;-65
2023/08/15 04:53:55;;;;;;;13.53;4.23;;;;;;;19.92;100.00;100728.78;6100723;28;20060;-65
2023/08/15 04:56:50;;;;;;;9.87;3.60;;;;;;;20.16;100.00;100747.00;6101176;28;20082;-66
2023/08/15 04:59:45;;;;;;;9.63;4.03;;;;;;;20.37;100.00;100747.84;6100928;28;20095;-66
2023/08/15 05:02:41;;;;;;;9.23;3.40;;;;;;;20.47;100.00;100738.31;6101290;28;20543;-65
2023/08/15 05:05:36;;;;;;;7.20;3.43;;;;;;;20.96;100.00;100753.94;6100401;28;20279;-66
2023/08/15 05:08:31;;;;;;;6.60;3.25;;;;;;;21.49;100.00;100764.56;6104508;28;20302;-65
2023/08/15 05:11:27;;;;;;;4.37;2.70;;;;;;;21.74;100.00;100752.75;6100860;28;20432;-66
2023/08/15 05:14:22;;;;;;;9.27;3.00;;;;;;;21.49;100.00;100751.88;6100014;28;20170;-66
2023/08/15 05:17:17;;;;;;;8.85;2.55;;;;;;;21.28;100.00;100750.31;6100777;28;20017;-66
2023/08/15 05:20:14;;;;;;;4.85;2.53;;;;;;;21.21;100.00;100751.41;6100885;28;20036;-66
2023/08/15 05:23:09;;;;;;;6.15;2.75;;;;;;;21.03;100.00;100753.94;6105559;28;20029;-66
2023/08/15 05:26:06;;;;;;;7.93;2.80;;;;;;;21.06;100.00;100734.63;6099865;28;20126;-66
2023/08/15 05:29:01;;;;;;;7.13;3.07;;;;;;;21.19;100.00;100731.91;6100283;28;20432;-66
2023/08/15 05:31:57;;;;;;;7.78;2.78;;;;;;;22.06;100.00;100733.88;6100487;28;20033;-66
2023/08/15 05:34:52;;;;;;;7.83;2.87;;;;;;;22.43;98.90;100747.25;6101430;28;20056;-65
2023/08/15 05:37:47;;;;;;;9.43;3.17;;;;;;;22.05;99.26;100727.63;6104442;28;20291;-65
2023/08/15 05:40:43;;;;;;;5.77;3.00;;;;;;;21.77;100.00;100751.50;6098354;28;20037;-66
2023/08/15 05:43:38;;;;;;;7.23;3.50;;;;;;;21.46;100.00;100732.59;6098151;28;20028;-65
2023/08/15 05:46:33;;;;;;;6.53;2.80;;;;;;;21.60;100.00;100742.28;6100171;28;20033;-65
2023/08/15 05:49:28;;;;;;;6.23;3.20;;;;;;;21.39;100.00;100748.00;6099962;28;20029;-65
2023/08/15 05:52:25;;;;;;;7.90;3.50;;;;;;;21.28;100.00;100757.56;6099970;28;20044;-66
2023/08/15 05:55:21;;;;;;;9.27;4.22;;;;;;;21.26;100.00;100751.56;6097299;28;20029;-65
2023/08/15 05:58:16;;;;;;;9.47;4.10;;;;;;;21.47;100.00;100777.44;6096517;28;20040;-65
2023/08/15 06:01:11;;;;;;;4.93;3.23;;;;;;;21.74;100.00;100789.75;6100015;28;20044;-66
2023/08/15 06:04:07;;;;;;;7.13;3.28;;;;;;;21.91;100.00;100783.63;6098895;28;20036;-66
2023/08/15 06:07:02;;;;;;;8.07;3.57;;;;;;;22.17;100.00;100782.63;6099669;28;20032;-65
2023/08/15 06:09:57;;;;;;;5.65;2.97;;;;;;;22.09;100.00;100793.69;6099899;28;20338;-66
2023/08/15 06:12:53;;;;;;;8.13;3.43;;;;;;;22.19;100.00;100780.53;6099686;28;20103;-65
2023/08/15 06:15:48;;;;;;;5.10;3.30;;;;;;;22.24;100.00;100783.38;6097036;28;20122;-65
2023/08/15 06:18:43;;;;;;;5.27;2.93;;;;;;;22.20;100.00;100790.28;6100905;28;20036;-66
2023/08/15 06:21:41;;;;;;;4.83;2.60;;;;;;;22.17;100.00;100769.13;6103712;28;20037;-66
2023/08/15 06:24:36;;;;;;;4.47;2.67;;;;;;;22.18;100.00;100770.75;6097326;28;20021;-65
2023/08/15 06:27:32;;;;;;;7.43;3.27;;;;;;;22.08;100.00;100753.38;6104091;28;20071;-65
2023/08/15 06:30:27;;;;;;;5.80;2.80;;;;;;;21.88;100.00;100775.13;6100088;28;20021;-64
2023/08/15 06:33:22;;;;;;;7.70;3.03;;;;;;;21.67;100.00;100756.53;6099085;28;20287;-64
2023/08/15 06:36:18;;;;;;;9.37;3.13;;;;;;;21.21;100.00;100743.31;6098491;28;20029;-64
2023/08/15 06:39:13;;;;;;;5.80;3.00;;;;;;;20.88;100.00;100774.91;6101657;28;20461;-64
2023/08/15 06:42:10;;;;;;;8.90;3.03;;;;;;;20.69;100.00;100787.41;6099496;28;20028;-64
2023/08/15 06:45:11;;;;;;;5.93;3.22;;;;;;;20.77;100.00;100838.41;6098037;28;20051;-64
2023/08/15 06:48:06;;;;;;;6.70;3.38;;;;;;;20.66;100.00;100849.81;6098133;28;20025;-64
2023/08/15 06:51:03;;;;;;;6.40;3.30;;;;;;;20.70;100.00;100878.03;6098873;28;20475;-64
2023/08/15 06:53:58;;;;;;;12.05;3.83;;;;;;;20.50;100.00;100879.88;6096696;28;20028;-65
2023/08/15 06:56:53;;;;;;;5.13;3.27;;;;;;;20.36;100.00;100922.13;6098854;28;20052;-65
2023/08/15 06:59:49;;;;;;;7.50;3.77;;;;;;;20.19;100.00;100939.69;6102496;28;20328;-65
2023/08/15 07:02:44;;;;;;;14.63;4.17;;;;;;;19.99;100.00;100939.63;6098421;28;20087;-66
2023/08/15 07:05:40;;;;;;;8.77;4.45;;;;;;;19.94;100.00;100987.88;6097897;28;20743;-65
2023/08/15 07:08:36;;;;;;;8.52;4.13;;;;;;;19.76;100.00;100924.84;6098317;28;20082;-65
2023/08/15 07:11:31;;;;;;;8.25;4.05;;;;;;;19.70;100.00;100923.78;6098505;28;20460;-65
2023/08/15 07:14:26;;;;;;;9.23;4.00;;;;;;;19.63;100.00;100905.91;6097618;28;20067;-65
2023/08/15 07:17:21;;;;;;;6.93;3.70;;;;;;;19.65;100.00;100893.91;6099126;28;20021;-65
2023/08/15 07:20:17;;;;;;;10.70;4.70;;;;;;;19.62;100.00;100839.69;6097976;28;20368;-65
2023/08/15 07:23:12;;;;;;;10.43;4.38;;;;;;;19.59;100.00;100814.81;6097972;28;20041;-65
2023/08/15 07:26:08;;;;;;;13.27;4.10;;;;;;;19.79;100.00;100820.28;6097641;28;20017;-65
2023/08/15 07:29:03;;;;;;;7.93;3.77;;;;;;;19.81;100.00;100793.97;6098081;28;20036;-65
2023/08/15 07:31:58;;;;;;;8.17;4.63;;;;;;;19.88;100.00;100821.75;6099357;28;20126;-65
2023/08/15 07:34:54;;;;;;;8.60;5.07;;;;;;;20.03;100.00;100817.00;6096886;28;20275;-65
2023/08/15 07:37:49;;;;;;;10.80;5.00;;;;;;;19.94;100.00;100809.34;6097424;28;20256;-66
2023/08/15 07:40:47;;;;;;;8.70;5.27;;;;;;;20.10;100.00;100834.03;6096415;28;20055;-66
2023/08/15 07:43:42;;;;;;;10.60;5.13;;;;;;;19.97;100.00;100823.22;6111804;28;20350;-65
2023/08/15 07:46:37;;;;;;;11.63;5.57;;;;;;;20.17;100.00;100823.25;6097536;28;20025;-66
2023/08/15 07:49:32;;;;;;;12.83;5.80;;;;;;;20.32;100.00;100796.16;6101714;28;20043;-66
2023/08/15 07:52:28;;;;;;;10.98;5.13;;;;;;;20.42;100.00;100797.38;6097323;28;20271;-66
2023/08/15 07:55:24;;;;;;;11.03;5.50;;;;;;;20.56;100.00;100814.38;6096836;28;20025;-66
2023/08/15 07:58:19;;;;;;;10.15;4.50;;;;;;;20.58;100.00;100815.81;6097332;28;20476;-65
2023/08/15 08:01:14;;;;;;;9.83;4.67;;;;;;;20.81;100.00;100831.56;6097294;28;20044;-65
2023/08/15 08:04:09;;;;;;;12.33;5.17;;;;;;;21.07;100.00;100863.06;6099874;28;20396;-66
2023/08/15 08:07:05;;;;;;;9.07;3.97;;;;;;;21.42;100.00;100866.28;6100288;28;20364;-66
2023/08/15 08:10:00;;;;;;;7.97;3.07;;;;;;;21.36;100.00;100858.00;6097358;28;20264;-66
2023/08/15 08:12:58;;;;;;;9.43;3.97;;;;;;;21.61;100.00;100865.38;6101589;28;21495;-65
2023/08/15 08:15:54;;;;;;;9.50;3.40;;;;;;;22.02;100.00;100838.81;6098821;28;20388;-66
2023/08/15 08:18:49;;;;;;;8.10;3.00;;;;;;;22.16;100.00;100851.19;6097539;28;20044;-65
2023/08/15 08:21:44;;;;;;;4.77;2.60;;;;;;;22.60;100.00;100855.66;6101085;28;20095;-66
2023/08/15 08:24:40;;;;;;;6.83;2.50;;;;;;;22.99;100.00;100879.66;6096919;28;20021;-66
2023/08/15 08:27:35;;;;;;;6.90;2.30;;;;;;;23.11;100.00;100852.69;6097158;28;20252;-66
2023/08/15 08:30:30;;;;;;;4.50;2.53;;;;;;;23.78;100.00;100848.19;6097212;28;20021;-66
2023/08/15 08:33:28;;;;;;;4.13;2.20;;;;;;;24.09;100.00;100873.19;6096579;28;20112;-66
2023/08/15 08:36:23;;;;;;;4.10;1.77;;;;;;;23.85;100.00;100865.16;6097083;28;20270;-66
2023/08/15 08:39:19;;;;;;;3.80;1.97;;;;;;;23.92;100.00;100866.72;6097086;28;20494;-67
2023/08/15 08:42:14;;;;;;;5.47;2.20;;;;;;;23.95;100.00;100871.69;6095374;28;20513;-67
2023/08/15 08:45:10;;;;;;;4.90;1.45;;;;;;;23.90;100.00;100884.25;6112195;28;20271;-67
2023/08/15 08:48:08;;;;;;;4.47;1.63;;;;;;;24.14;100.00;100886.03;6097208;28;20020;-66
2023/08/15 08:51:05;;;;;;;4.00;1.35;;;;;;;24.46;100.00;100900.97;6098174;28;20472;-67
2023/08/15 08:54:00;;;;;;;3.92;1.10;;;;;;;24.00;100.00;100887.25;6100759;28;20056;-67
2023/08/15 08:56:58;;;;;;;1.95;1.10;;;;;;;24.03;98.35;100884.06;6100992;28;20039;-67
2023/08/15 08:59:56;;;;;;;2.95;1.00;;;;;;;24.28;100.00;100903.75;6100348;28;20029;-67
2023/08/15 09:02:52;;;;;;;1.52;1.00;;;;;;;24.60;95.80;100898.88;6101277;28;20127;-67
2023/08/15 09:05:48;;;;;;;1.65;1.00;;;;;;;24.51;96.61;100887.56;6100795;28;20086;-67
2023/08/15 09:08:43;;;;;;;1.77;0.98;;;;;;;24.64;98.82;100881.94;6097983;28;20035;-67
2023/08/15 09:11:38;;;;;;;1.67;1.00;;;;;;;24.84;94.23;100878.88;6096433;28;20418;-67
2023/08/15 09:14:40;;;;;;;1.33;0.90;;;;;;;25.08;93.09;100882.44;6100455;28;20017;-66
2023/08/15 09:17:38;;;;;;;1.10;0.85;;;;;;;25.21;91.46;100868.63;6100918;28;20033;-67
2023/08/15 09:20:44;;;;;;;1.58;0.80;;;;;;;25.40;88.38;100875.56;6103117;28;20044;-67
2023/08/15 09:23:44;;;;;;;1.38;0.80;;;;;;;25.40;84.55;100881.81;6100353;28;20528;-66
2023/08/15 09:26:39;;;;;;;1.88;0.90;;;;;;;25.37;85.91;100878.75;6100873;28;20415;-67
2023/08/15 09:29:35;;;;;;;3.33;1.10;;;;;;;25.43;86.69;100877.81;6100824;28;20155;-67
2023/08/15 09:32:30;;;;;;;2.17;0.98;;;;;;;25.46;83.27;100869.19;6100393;28;20036;-67
2023/08/15 09:35:25;;;;;;;1.90;1.00;;;;;;;25.76;82.98;100897.00;6099930;28;20020;-67
2023/08/15 09:38:21;;;;;;;3.27;1.00;;;;;;;25.80;81.96;100881.84;6100214;28;20040;-67
2023/08/15 09:41:17;;;;;;;2.13;0.95;;;;;;;26.03;83.45;100880.94;6098774;28;20070;-66
2023/08/15 09:44:16;;;;;;;1.25;0.80;;;;;;;25.88;81.17;100889.63;6099654;28;20021;-67
2023/08/15 09:47:11;;;;;;;2.38;0.90;;;;;;;25.93;82.27;100900.59;6115067;28;20111;-67
2023/08/15 09:50:08;;;;;;;1.95;1.10;;;;;;;26.28;79.52;100897.75;6109034;28;20043;-67
2023/08/15 09:53:04;;;;;;;2.60;1.10;;;;;;;26.67;81.06;100898.69;6099830;28;20383;-66
2023/08/15 09:55:59;;;;;;;1.60;0.80;;;;;;;26.78;75.93;100895.09;6099477;28;20334;-66
2023/08/15 09:58:55;;;;;;;2.00;1.10;;;;;;;27.05;76.95;100896.06;6098975;28;20037;-67
2023/08/15 10:01:52;;;;;;;1.90;0.87;;;;;;;26.99;71.75;100899.78;6099212;28;20028;-67
2023/08/15 10:04:57;;;;;;;2.20;0.98;;;;;;;26.70;73.44;100892.75;6098984;28;20029;-67
2023/08/15 10:07:52;;;;;;;2.88;1.52;;;;;;;26.59;74.39;100907.28;6123735;28;20032;-67
2023/08/15 10:10:52;;;;;;;1.95;1.10;;;;;;;26.36;72.10;100883.75;6115074;28;20044;-67
2023/08/15 10:13:49;;;;;;;1.60;0.90;;;;;;;26.53;74.00;100894.63;6098539;28;20032;-67
2023/08/15 10:16:44;;;;;;;2.00;1.00;;;;;;;26.63;70.46;100886.66;6099297;28;20531;-67
2023/08/15 10:19:45;;;;;;;1.92;1.10;;;;;;;27.33;68.42;100913.34;6099286;28;20041;-67
2023/08/15 10:22:40;;;;;;;1.83;1.10;;;;;;;27.31;67.79;100901.88;6093953;28;20041;-67
2023/08/15 10:25:38;;;;;;;1.80;1.00;;;;;;;27.23;64.91;100915.94;6098711;28;20025;-67
2023/08/15 10:28:34;;;;;;;3.38;1.10;;;;;;;27.22;65.67;100914.28;6099277;28;20267;-67
2023/08/15 10:31:36;;;;;;;2.78;1.20;;;;;;;27.52;64.26;100907.38;6099363;28;20025;-67
2023/08/15 10:34:33;;;;;;;3.40;1.00;;;;;;;28.06;66.83;100912.97;6098390;28;20469;-65
2023/08/15 10:37:31;;;;;;;2.00;1.13;;;;;;;28.02;62.13;100917.28;6097905;28;20488;-67
2023/08/15 10:40:40;;;;;;;2.80;1.10;;;;;;;28.02;62.01;100917.28;6099057;28;20117;-67
2023/08/15 10:43:36;;;;;;;2.92;1.10;;;;;;;28.12;61.66;100909.22;6111661;28;20028;-67
2023/08/15 10:46:33;;;;;;;2.38;1.27;;;;;;;28.02;60.97;100896.28;6099667;28;20478;-67
2023/08/15 10:49:28;;;;;;;2.90;1.50;;;;;;;28.64;66.12;100909.47;6105035;28;20111;-67
2023/08/15 10:52:23;;;;;;;2.50;1.50;;;;;;;28.79;61.72;100896.75;6099856;28;20033;-67
2023/08/15 10:55:19;;;;;;;2.80;1.33;;;;;;;28.57;61.94;100915.13;6098005;28;20283;-67
2023/08/15 10:58:14;;;;;;;2.40;1.33;;;;;;;28.64;62.55;100910.31;6098463;28;20380;-67
2023/08/15 11:01:09;;;;;;;2.35;1.17;;;;;;;28.41;61.17;100920.69;6097401;28;20325;-67
2023/08/15 11:04:08;;;;;;;2.50;1.20;;;;;;;28.48;64.60;100924.03;6097793;28;20563;-67
2023/08/15 11:07:03;;;;;;;4.18;1.45;;;;;;;28.53;64.85;100921.34;6098581;28;20039;-67
2023/08/15 11:09:58;;;;;;;2.30;1.07;;;;;;;28.78;62.45;100916.16;6102835;28;20356;-68
2023/08/15 11:12:54;;;;;;;3.33;1.33;;;;;;;29.19;60.44;100912.59;6098170;28;20336;-67
2023/08/15 11:15:49;;;;;;;3.07;1.50;;;;;;;29.11;60.21;100915.84;6097692;28;20032;-67
2023/08/15 11:18:46;;;;;;;3.50;1.52;;;;;;;28.84;60.84;100915.09;6097939;28;20032;-67
2023/08/15 11:21:41;;;;;;;2.58;1.65;;;;;;;28.56;58.93;100918.94;6098081;28;20111;-68
2023/08/15 11:24:36;;;;;;;3.85;1.52;;;;;;;28.29;59.56;100946.22;6097130;28;20375;-67
2023/08/15 11:27:38;;;;;;;3.17;1.90;;;;;;;28.04;60.75;100943.25;6104270;28;20028;-67
2023/08/15 11:30:33;;;;;;;3.55;1.70;;;;;;;28.07;62.04;100941.91;6097940;28;20029;-67
2023/08/15 11:33:30;;;;;;;2.58;1.30;;;;;;;27.85;62.26;100921.97;6096973;28;20142;-67
2023/08/15 11:36:25;;;;;;;2.33;1.40;;;;;;;28.26;65.42;100935.84;6097800;28;20451;-67
2023/08/15 11:39:21;;;;;;;4.07;1.75;;;;;;;27.90;61.77;100933.75;6097241;28;20039;-67
2023/08/15 11:42:16;;;;;;;5.70;2.10;;;;;;;28.16;62.42;100933.00;6103629;28;20029;-67
2023/08/15 11:45:19;;;;;;;3.20;1.37;;;;;;;28.71;61.61;100921.00;6096597;28;20029;-67
2023/08/15 11:48:14;;;;;;;4.40;1.77;;;;;;;28.72;58.26;100911.72;6095760;28;20040;-68
2023/08/15 11:51:09;;;;;;;2.53;1.60;;;;;;;28.92;60.17;100928.25;6097576;28;20029;-68
2023/08/15 11:54:05;;;;;;;9.70;1.93;;;;;;;28.93;59.29;100946.31;6096270;28;20120;-68
2023/08/15 11:57:00;;;;;;;4.63;1.75;;;;;;;28.62;61.27;100922.53;6097508;28;20033;-68
2023/08/15 11:59:55;;;;;;;3.97;2.03;;;;;;;28.40;61.09;100944.44;6098621;28;20037;-67
2023/08/15 12:02:54;;;;;;;3.30;2.17;;;;;;;27.98;61.61;100938.75;6097215;28;20028;-67
2023/08/15 12:05:53;;;;;;;4.88;2.28;;;;;;;27.73;64.54;100942.00;6096825;28;20035;-67
2023/08/15 12:08:48;;;;;;;3.53;1.98;;;;;;;27.45;63.43;100933.19;6097119;28;20039;-67
2023/08/15 12:11:43;;;;;;;4.47;2.30;;;;;;;27.67;63.48;100932.09;6097202;28;20040;-68
2023/08/15 12:14:39;;;;;;;3.60;1.97;;;;;;;28.02;61.91;100928.19;6089826;28;20094;-68
2023/08/15 12:17:34;;;;;;;5.03;2.20;;;;;;;28.16;61.27;100924.81;6092189;28;20029;-67
2023/08/15 12:20:29;;;;;;;4.15;2.08;;;;;;;28.21;60.33;100922.13;6097131;28;20037;-67
2023/08/15 12:23:25;;;;;;;3.47;2.10;;;;;;;28.34;61.25;100938.13;6096224;28;20032;-67
2023/08/15 12:26:20;;;;;;;11.52;3.05;;;;;;;28.50;58.09;100930.06;6099065;28;20056;-67
2023/08/15 12:29:16;;;;;;;2.90;1.90;;;;;;;28.59;60.14;100928.53;6101690;28;20021;-68
2023/08/15 12:32:11;;;;;;;4.03;2.03;;;;;;;28.48;58.68;100926.78;6102858;28;20052;-67
2023/08/15 12:35:07;;;;;;;2.50;1.60;;;;;;;28.39;58.59;100941.97;6101139;28;20314;-67
2023/08/15 12:38:02;;;;;;;2.85;1.83;;;;;;;28.07;58.93;100928.25;6101191;28;20100;-68
2023/08/15 12:40:57;;;;;;;3.97;2.22;;;;;;;28.17;60.63;100931.91;6101656;28;20075;-67
2023/08/15 12:43:53;;;;;;;3.50;2.10;;;;;;;27.79;59.86;100923.81;6098227;28;20102;-67
2023/08/15 12:46:49;;;;;;;4.65;2.15;;;;;;;27.62;61.24;100939.38;6102208;28;20025;-67
2023/08/15 12:49:44;;;;;;;5.67;2.00;;;;;;;27.70;62.02;100931.59;6101734;28;20326;-68
2023/08/15 12:52:39;;;;;;;3.30;1.70;;;;;;;27.99;59.31;100915.06;6101290;28;20628;-67
2023/08/15 12:55:35;;;;;;;2.50;1.80;;;;;;;28.38;59.87;100922.03;6097512;28;20290;-67
2023/08/15 12:58:31;;;;;;;4.00;2.00;;;;;;;28.95;57.72;100905.88;6101162;28;20055;-68
2023/08/15 13:01:26;;;;;;;3.53;2.00;;;;;;;28.63;58.25;100924.19;6101436;28;20025;-67
2023/08/15 13:04:21;;;;;;;4.72;2.10;;;;;;;28.57;57.51;100908.81;6100536;28;20112;-68
2023/08/15 13:07:17;;;;;;;3.65;2.03;;;;;;;28.38;58.03;100905.66;6100934;28;20055;-67
2023/08/15 13:10:12;;;;;;;3.17;1.87;;;;;;;28.12;60.14;100920.97;6101239;28;20083;-67
2023/08/15 13:13:08;;;;;;;2.97;2.20;;;;;;;27.90;60.46;100909.22;6100726;28;20275;-67
2023/08/15 13:16:04;;;;;;;2.47;1.70;;;;;;;28.00;60.87;100925.69;6100413;28;20472;-67
2023/08/15 13:19:00;;;;;;;11.48;2.17;;;;;;;28.27;58.57;100912.91;6101074;28;20060;-68
2023/08/15 13:21:55;;;;;;;3.70;2.10;;;;;;;28.70;58.60;100933.03;6098644;28;20043;-67
2023/08/15 13:24:50;;;;;;;3.27;2.10;;;;;;;28.35;59.18;100917.91;6109138;28;20028;-67
2023/08/15 13:27:45;;;;;;;3.37;2.03;;;;;;;28.28;60.88;100924.66;6100608;28;20267;-67
2023/08/15 13:30:42;;;;;;;3.70;2.00;;;;;;;28.21;60.93;100926.78;6100743;28;20108;-68
2023/08/15 13:33:38;;;;;;;3.50;2.03;;;;;;;28.12;60.24;100931.88;6100031;28;20029;-68